sensor_id;sensor_type;location;lat;lon;timestamp;P1;durP1;ratioP1;P2;durP2;ratioP2
61531;SDS011;47397;48.194;11.632;2023-02-22T00:00:21;5.47;;;4.03;;
61531;SDS011;47397;48.194;11.632;2023-02-22T00:01:22;5.72;;;3.63;;
61531;SDS011;47397;48.194;11.632;2023-02-22T00:02:23;4.47;;;3.28;;
61531;SDS011;47397;48.194;11.632;2023-02-22T00:03:24;4.40;;;3.63;;
61531;SDS011;47397;48.194;11.632;2023-02-22T00:04:26;6.13;;;3.75;;
61531;SDS011;47397;48.194;11.632;2023-02-22T00:05:26;5.38;;;3.58;;
61531;SDS011;47397;48.194;11.632;2023-02-22T00:06:27;5.13;;;3.45;;
61531;SDS011;47397;48.194;11.632;2023-02-22T00:07:28;5.95;;;4.00;;
61531;SDS011;47397;48.194;11.632;2023-02-22T00:08:29;5.13;;;3.42;;
61531;SDS011;47397;48.194;11.632;2023-02-22T00:09:30;7.53;;;3.80;;
61531;SDS011;47397;48.194;11.632;2023-02-22T00:10:31;4.80;;;3.28;;
61531;SDS011;47397;48.194;11.632;2023-02-22T00:11:31;4.93;;;3.47;;
61531;SDS011;47397;48.194;11.632;2023-02-22T00:12:31;4.70;;;3.47;;
61531;SDS011;47397;48.194;11.632;2023-02-22T00:13:32;5.40;;;3.40;;
61531;SDS011;47397;48.194;11.632;2023-02-22T00:14:34;4.93;;;3.63;;
61531;SDS011;47397;48.194;11.632;2023-02-22T00:15:35;4.93;;;3.60;;
61531;SDS011;47397;48.194;11.632;2023-02-22T00:16:35;7.38;;;4.00;;
61531;SDS011;47397;48.194;11.632;2023-02-22T00:17:36;4.43;;;3.47;;
61531;SDS011;47397;48.194;11.632;2023-02-22T00:18:36;6.65;;;3.67;;
61531;SDS011;47397;48.194;11.632;2023-02-22T00:19:37;6.03;;;3.60;;
61531;SDS011;47397;48.194;11.632;2023-02-22T00:20:37;4.22;;;3.17;;
61531;SDS011;47397;48.194;11.632;2023-02-22T00:21:38;5.63;;;3.45;;
61531;SDS011;47397;48.194;11.632;2023-02-22T00:22:39;4.72;;;3.13;;
61531;SDS011;47397;48.194;11.632;2023-02-22T00:23:40;4.18;;;3.42;;
61531;SDS011;47397;48.194;11.632;2023-02-22T00:24:43;3.95;;;3.20;;
61531;SDS011;47397;48.194;11.632;2023-02-22T00:25:43;5.05;;;3.33;;
61531;SDS011;47397;48.194;11.632;2023-02-22T00:26:44;5.30;;;3.13;;
61531;SDS011;47397;48.194;11.632;2023-02-22T00:27:45;5.18;;;3.60;;
61531;SDS011;47397;48.194;11.632;2023-02-22T00:28:46;5.30;;;3.55;;
61531;SDS011;47397;48.194;11.632;2023-02-22T00:29:50;4.72;;;3.63;;
61531;SDS011;47397;48.194;11.632;2023-02-22T00:30:50;4.53;;;3.50;;
61531;SDS011;47397;48.194;11.632;2023-02-22T00:31:51;4.97;;;3.42;;
61531;SDS011;47397;48.194;11.632;2023-02-22T00:32:52;7.10;;;3.30;;
61531;SDS011;47397;48.194;11.632;2023-02-22T00:33:53;5.10;;;3.60;;
61531;SDS011;47397;48.194;11.632;2023-02-22T00:34:54;4.95;;;3.33;;
61531;SDS011;47397;48.194;11.632;2023-02-22T00:35:54;5.25;;;3.80;;
61531;SDS011;47397;48.194;11.632;2023-02-22T00:36:55;5.22;;;3.22;;
61531;SDS011;47397;48.194;11.632;2023-02-22T00:37:56;5.03;;;2.97;;
61531;SDS011;47397;48.194;11.632;2023-02-22T00:38:57;4.60;;;3.25;;
61531;SDS011;47397;48.194;11.632;2023-02-22T00:39:57;4.78;;;3.40;;
61531;SDS011;47397;48.194;11.632;2023-02-22T00:40:58;5.50;;;3.72;;
61531;SDS011;47397;48.194;11.632;2023-02-22T00:41:58;4.95;;;3.50;;
61531;SDS011;47397;48.194;11.632;2023-02-22T00:42:59;4.97;;;3.42;;
61531;SDS011;47397;48.194;11.632;2023-02-22T00:44:02;4.68;;;3.38;;
61531;SDS011;47397;48.194;11.632;2023-02-22T00:45:04;4.75;;;3.35;;
61531;SDS011;47397;48.194;11.632;2023-02-22T00:46:05;6.38;;;3.22;;
61531;SDS011;47397;48.194;11.632;2023-02-22T00:47:06;7.05;;;3.65;;
61531;SDS011;47397;48.194;11.632;2023-02-22T00:48:06;6.63;;;3.60;;
61531;SDS011;47397;48.194;11.632;2023-02-22T00:49:08;6.10;;;3.92;;
61531;SDS011;47397;48.194;11.632;2023-02-22T00:50:08;4.90;;;3.38;;
61531;SDS011;47397;48.194;11.632;2023-02-22T00:51:09;5.65;;;3.20;;
61531;SDS011;47397;48.194;11.632;2023-02-22T00:52:10;4.68;;;3.42;;
61531;SDS011;47397;48.194;11.632;2023-02-22T00:53:10;5.20;;;3.60;;
61531;SDS011;47397;48.194;11.632;2023-02-22T00:54:10;4.35;;;3.90;;
61531;SDS011;47397;48.194;11.632;2023-02-22T00:55:14;5.82;;;3.50;;
61531;SDS011;47397;48.194;11.632;2023-02-22T00:56:16;5.63;;;3.80;;
61531;SDS011;47397;48.194;11.632;2023-02-22T00:57:17;5.78;;;3.25;;
61531;SDS011;47397;48.194;11.632;2023-02-22T00:58:18;5.07;;;3.55;;
61531;SDS011;47397;48.194;11.632;2023-02-22T00:59:19;5.97;;;3.40;;
61531;SDS011;47397;48.194;11.632;2023-02-22T01:00:21;4.93;;;3.50;;
61531;SDS011;47397;48.194;11.632;2023-02-22T01:01:23;4.50;;;3.08;;
61531;SDS011;47397;48.194;11.632;2023-02-22T01:02:23;5.78;;;3.58;;
61531;SDS011;47397;48.194;11.632;2023-02-22T01:03:23;6.05;;;3.42;;
61531;SDS011;47397;48.194;11.632;2023-02-22T01:04:24;5.97;;;3.70;;
61531;SDS011;47397;48.194;11.632;2023-02-22T01:05:28;4.75;;;3.70;;
61531;SDS011;47397;48.194;11.632;2023-02-22T01:06:29;5.40;;;3.72;;
61531;SDS011;47397;48.194;11.632;2023-02-22T01:07:30;5.00;;;3.75;;
61531;SDS011;47397;48.194;11.632;2023-02-22T01:08:30;4.25;;;3.40;;
61531;SDS011;47397;48.194;11.632;2023-02-22T01:09:30;4.97;;;3.30;;
61531;SDS011;47397;48.194;11.632;2023-02-22T01:10:31;5.50;;;3.50;;
61531;SDS011;47397;48.194;11.632;2023-02-22T01:11:32;6.88;;;3.75;;
61531;SDS011;47397;48.194;11.632;2023-02-22T01:12:33;5.65;;;3.70;;
61531;SDS011;47397;48.194;11.632;2023-02-22T01:13:34;5.70;;;3.83;;
61531;SDS011;47397;48.194;11.632;2023-02-22T01:14:35;5.60;;;4.03;;
61531;SDS011;47397;48.194;11.632;2023-02-22T01:15:37;6.45;;;4.20;;
61531;SDS011;47397;48.194;11.632;2023-02-22T01:16:39;5.07;;;3.55;;
61531;SDS011;47397;48.194;11.632;2023-02-22T01:17:40;6.00;;;3.63;;
61531;SDS011;47397;48.194;11.632;2023-02-22T01:18:40;5.10;;;3.17;;
61531;SDS011;47397;48.194;11.632;2023-02-22T01:19:41;4.57;;;3.20;;
61531;SDS011;47397;48.194;11.632;2023-02-22T01:20:41;6.45;;;3.85;;
61531;SDS011;47397;48.194;11.632;2023-02-22T01:21:42;5.18;;;3.42;;
61531;SDS011;47397;48.194;11.632;2023-02-22T01:22:43;4.55;;;3.70;;
61531;SDS011;47397;48.194;11.632;2023-02-22T01:23:45;4.95;;;3.42;;
61531;SDS011;47397;48.194;11.632;2023-02-22T01:24:46;5.35;;;3.50;;
61531;SDS011;47397;48.194;11.632;2023-02-22T01:25:46;5.18;;;3.50;;
61531;SDS011;47397;48.194;11.632;2023-02-22T01:26:48;4.95;;;3.50;;
61531;SDS011;47397;48.194;11.632;2023-02-22T01:27:50;5.95;;;3.97;;
61531;SDS011;47397;48.194;11.632;2023-02-22T01:28:51;4.45;;;3.25;;
61531;SDS011;47397;48.194;11.632;2023-02-22T01:29:52;5.47;;;3.00;;
61531;SDS011;47397;48.194;11.632;2023-02-22T01:30:54;4.82;;;3.60;;
61531;SDS011;47397;48.194;11.632;2023-02-22T01:31:54;5.13;;;3.50;;
61531;SDS011;47397;48.194;11.632;2023-02-22T01:32:55;6.47;;;3.83;;
61531;SDS011;47397;48.194;11.632;2023-02-22T01:33:56;5.22;;;3.92;;
61531;SDS011;47397;48.194;11.632;2023-02-22T01:34:56;5.60;;;3.50;;
61531;SDS011;47397;48.194;11.632;2023-02-22T01:35:57;4.85;;;3.80;;
61531;SDS011;47397;48.194;11.632;2023-02-22T01:36:57;5.95;;;4.00;;
61531;SDS011;47397;48.194;11.632;2023-02-22T01:37:58;4.80;;;3.75;;
61531;SDS011;47397;48.194;11.632;2023-02-22T01:38:59;6.25;;;3.83;;
61531;SDS011;47397;48.194;11.632;2023-02-22T01:39:59;5.28;;;3.60;;
61531;SDS011;47397;48.194;11.632;2023-02-22T01:41:00;5.82;;;3.88;;
61531;SDS011;47397;48.194;11.632;2023-02-22T01:42:00;5.63;;;3.88;;
61531;SDS011;47397;48.194;11.632;2023-02-22T01:43:02;7.18;;;3.90;;
61531;SDS011;47397;48.194;11.632;2023-02-22T01:47:00;4.80;;;3.50;;
61531;SDS011;47397;48.194;11.632;2023-02-22T01:48:05;4.30;;;3.33;;
61531;SDS011;47397;48.194;11.632;2023-02-22T01:49:08;5.78;;;3.80;;
61531;SDS011;47397;48.194;11.632;2023-02-22T01:50:08;6.95;;;3.67;;
61531;SDS011;47397;48.194;11.632;2023-02-22T01:51:10;5.05;;;3.63;;
61531;SDS011;47397;48.194;11.632;2023-02-22T01:52:14;6.45;;;4.00;;
61531;SDS011;47397;48.194;11.632;2023-02-22T01:53:18;5.13;;;3.60;;
61531;SDS011;47397;48.194;11.632;2023-02-22T01:54:22;4.63;;;3.42;;
61531;SDS011;47397;48.194;11.632;2023-02-22T01:55:25;6.53;;;3.85;;
61531;SDS011;47397;48.194;11.632;2023-02-22T01:56:27;5.72;;;3.50;;
61531;SDS011;47397;48.194;11.632;2023-02-22T01:57:31;6.10;;;4.13;;
61531;SDS011;47397;48.194;11.632;2023-02-22T01:58:35;4.80;;;3.65;;
61531;SDS011;47397;48.194;11.632;2023-02-22T01:59:39;7.50;;;4.18;;
61531;SDS011;47397;48.194;11.632;2023-02-22T02:00:43;4.70;;;3.50;;
61531;SDS011;47397;48.194;11.632;2023-02-22T02:01:45;6.43;;;3.85;;
61531;SDS011;47397;48.194;11.632;2023-02-22T02:02:46;6.78;;;4.22;;
61531;SDS011;47397;48.194;11.632;2023-02-22T02:03:49;5.72;;;3.53;;
61531;SDS011;47397;48.194;11.632;2023-02-22T02:04:53;5.40;;;3.80;;
61531;SDS011;47397;48.194;11.632;2023-02-22T02:05:57;7.75;;;3.97;;
61531;SDS011;47397;48.194;11.632;2023-02-22T02:07:16;5.38;;;3.78;;
61531;SDS011;47397;48.194;11.632;2023-02-22T02:08:21;5.00;;;3.78;;
61531;SDS011;47397;48.194;11.632;2023-02-22T02:09:28;6.57;;;3.75;;
61531;SDS011;47397;48.194;11.632;2023-02-22T02:10:31;5.63;;;3.80;;
61531;SDS011;47397;48.194;11.632;2023-02-22T02:11:32;5.40;;;3.55;;
61531;SDS011;47397;48.194;11.632;2023-02-22T02:12:33;5.38;;;3.70;;
61531;SDS011;47397;48.194;11.632;2023-02-22T02:13:35;5.97;;;3.78;;
61531;SDS011;47397;48.194;11.632;2023-02-22T02:14:36;5.80;;;3.72;;
61531;SDS011;47397;48.194;11.632;2023-02-22T02:15:37;5.95;;;3.53;;
61531;SDS011;47397;48.194;11.632;2023-02-22T02:16:38;5.90;;;3.80;;
61531;SDS011;47397;48.194;11.632;2023-02-22T02:17:42;5.07;;;3.88;;
61531;SDS011;47397;48.194;11.632;2023-02-22T02:18:43;5.15;;;3.88;;
61531;SDS011;47397;48.194;11.632;2023-02-22T02:19:44;4.63;;;3.50;;
61531;SDS011;47397;48.194;11.632;2023-02-22T02:21:03;5.35;;;3.58;;
61531;SDS011;47397;48.194;11.632;2023-02-22T02:22:29;4.85;;;3.30;;
61531;SDS011;47397;48.194;11.632;2023-02-22T02:23:47;6.18;;;3.78;;
61531;SDS011;47397;48.194;11.632;2023-02-22T02:25:10;6.20;;;4.10;;
61531;SDS011;47397;48.194;11.632;2023-02-22T02:26:46;3.85;;;3.28;;
61531;SDS011;47397;48.194;11.632;2023-02-22T02:28:04;4.93;;;3.15;;
61531;SDS011;47397;48.194;11.632;2023-02-22T02:31:20;4.93;;;3.20;;
61531;SDS011;47397;48.194;11.632;2023-02-22T02:32:36;4.65;;;3.60;;
61531;SDS011;47397;48.194;11.632;2023-02-22T02:33:45;5.35;;;3.28;;
61531;SDS011;47397;48.194;11.632;2023-02-22T02:34:53;6.03;;;3.30;;
61531;SDS011;47397;48.194;11.632;2023-02-22T02:36:00;5.00;;;3.38;;
61531;SDS011;47397;48.194;11.632;2023-02-22T02:37:06;5.03;;;3.20;;
61531;SDS011;47397;48.194;11.632;2023-02-22T02:38:11;5.30;;;3.60;;
61531;SDS011;47397;48.194;11.632;2023-02-22T02:39:23;4.68;;;3.30;;
61531;SDS011;47397;48.194;11.632;2023-02-22T02:40:31;7.07;;;3.60;;
61531;SDS011;47397;48.194;11.632;2023-02-22T02:41:38;5.03;;;3.40;;
61531;SDS011;47397;48.194;11.632;2023-02-22T02:42:43;4.78;;;3.40;;
61531;SDS011;47397;48.194;11.632;2023-02-22T02:43:53;4.55;;;3.35;;
61531;SDS011;47397;48.194;11.632;2023-02-22T02:45:00;4.88;;;3.30;;
61531;SDS011;47397;48.194;11.632;2023-02-22T02:46:05;5.50;;;3.17;;
61531;SDS011;47397;48.194;11.632;2023-02-22T02:47:09;6.82;;;3.58;;
61531;SDS011;47397;48.194;11.632;2023-02-22T02:48:14;5.43;;;3.78;;
61531;SDS011;47397;48.194;11.632;2023-02-22T02:49:19;4.97;;;3.13;;
61531;SDS011;47397;48.194;11.632;2023-02-22T02:50:23;6.22;;;3.92;;
61531;SDS011;47397;48.194;11.632;2023-02-22T02:51:28;4.68;;;3.30;;
61531;SDS011;47397;48.194;11.632;2023-02-22T02:52:31;4.43;;;3.63;;
61531;SDS011;47397;48.194;11.632;2023-02-22T02:53:33;5.22;;;3.60;;
61531;SDS011;47397;48.194;11.632;2023-02-22T02:54:36;5.45;;;3.65;;
61531;SDS011;47397;48.194;11.632;2023-02-22T02:55:38;4.53;;;3.45;;
61531;SDS011;47397;48.194;11.632;2023-02-22T02:56:39;5.30;;;4.00;;
61531;SDS011;47397;48.194;11.632;2023-02-22T02:57:40;4.30;;;3.47;;
61531;SDS011;47397;48.194;11.632;2023-02-22T02:58:43;4.20;;;3.03;;
61531;SDS011;47397;48.194;11.632;2023-02-22T02:59:45;4.70;;;3.05;;
61531;SDS011;47397;48.194;11.632;2023-02-22T03:00:45;6.05;;;3.65;;
61531;SDS011;47397;48.194;11.632;2023-02-22T03:01:49;6.40;;;2.92;;
61531;SDS011;47397;48.194;11.632;2023-02-22T03:03:04;4.82;;;3.30;;
61531;SDS011;47397;48.194;11.632;2023-02-22T03:04:28;5.22;;;3.50;;
61531;SDS011;47397;48.194;11.632;2023-02-22T03:07:20;5.00;;;3.13;;
61531;SDS011;47397;48.194;11.632;2023-02-22T03:08:31;4.75;;;3.10;;
61531;SDS011;47397;48.194;11.632;2023-02-22T03:09:40;4.45;;;3.25;;
61531;SDS011;47397;48.194;11.632;2023-02-22T03:10:52;4.07;;;2.80;;
61531;SDS011;47397;48.194;11.632;2023-02-22T03:12:01;5.30;;;3.55;;
61531;SDS011;47397;48.194;11.632;2023-02-22T03:13:13;5.05;;;3.28;;
61531;SDS011;47397;48.194;11.632;2023-02-22T03:14:24;4.35;;;3.30;;
61531;SDS011;47397;48.194;11.632;2023-02-22T03:15:38;4.57;;;3.28;;
61531;SDS011;47397;48.194;11.632;2023-02-22T03:16:44;4.20;;;3.10;;
61531;SDS011;47397;48.194;11.632;2023-02-22T03:17:50;4.25;;;3.25;;
61531;SDS011;47397;48.194;11.632;2023-02-22T03:18:55;5.40;;;3.15;;
61531;SDS011;47397;48.194;11.632;2023-02-22T03:20:05;4.90;;;3.22;;
61531;SDS011;47397;48.194;11.632;2023-02-22T03:21:12;5.10;;;3.28;;
61531;SDS011;47397;48.194;11.632;2023-02-22T03:22:23;4.35;;;2.83;;
61531;SDS011;47397;48.194;11.632;2023-02-22T03:23:28;4.38;;;2.90;;
61531;SDS011;47397;48.194;11.632;2023-02-22T03:24:32;3.70;;;2.55;;
61531;SDS011;47397;48.194;11.632;2023-02-22T03:25:39;4.65;;;3.35;;
61531;SDS011;47397;48.194;11.632;2023-02-22T03:26:46;4.63;;;3.00;;
61531;SDS011;47397;48.194;11.632;2023-02-22T03:27:50;4.43;;;3.10;;
61531;SDS011;47397;48.194;11.632;2023-02-22T03:28:54;4.72;;;2.92;;
61531;SDS011;47397;48.194;11.632;2023-02-22T03:29:56;4.72;;;3.30;;
61531;SDS011;47397;48.194;11.632;2023-02-22T03:31:00;4.30;;;3.03;;
61531;SDS011;47397;48.194;11.632;2023-02-22T03:32:07;4.50;;;3.10;;
61531;SDS011;47397;48.194;11.632;2023-02-22T03:33:10;5.10;;;3.25;;
61531;SDS011;47397;48.194;11.632;2023-02-22T03:34:14;3.80;;;3.03;;
61531;SDS011;47397;48.194;11.632;2023-02-22T03:35:19;4.35;;;2.80;;
61531;SDS011;47397;48.194;11.632;2023-02-22T03:36:25;4.55;;;3.08;;
61531;SDS011;47397;48.194;11.632;2023-02-22T03:37:29;4.85;;;2.92;;
61531;SDS011;47397;48.194;11.632;2023-02-22T03:38:33;5.32;;;3.05;;
61531;SDS011;47397;48.194;11.632;2023-02-22T03:39:36;5.20;;;3.42;;
61531;SDS011;47397;48.194;11.632;2023-02-22T03:40:38;4.35;;;3.10;;
61531;SDS011;47397;48.194;11.632;2023-02-22T03:41:42;4.55;;;3.00;;
61531;SDS011;47397;48.194;11.632;2023-02-22T03:42:45;4.30;;;2.70;;
61531;SDS011;47397;48.194;11.632;2023-02-22T03:43:48;3.33;;;2.50;;
61531;SDS011;47397;48.194;11.632;2023-02-22T03:44:53;4.50;;;2.80;;
61531;SDS011;47397;48.194;11.632;2023-02-22T03:45:57;4.53;;;3.20;;
61531;SDS011;47397;48.194;11.632;2023-02-22T03:46:59;4.55;;;3.30;;
61531;SDS011;47397;48.194;11.632;2023-02-22T03:48:05;4.60;;;3.30;;
61531;SDS011;47397;48.194;11.632;2023-02-22T03:49:11;5.93;;;3.25;;
61531;SDS011;47397;48.194;11.632;2023-02-22T03:50:16;4.88;;;2.83;;
61531;SDS011;47397;48.194;11.632;2023-02-22T03:51:21;4.50;;;3.25;;
61531;SDS011;47397;48.194;11.632;2023-02-22T03:52:22;4.50;;;3.17;;
61531;SDS011;47397;48.194;11.632;2023-02-22T03:53:23;3.67;;;2.97;;
61531;SDS011;47397;48.194;11.632;2023-02-22T03:54:24;3.80;;;2.80;;
61531;SDS011;47397;48.194;11.632;2023-02-22T03:55:25;5.78;;;3.38;;
61531;SDS011;47397;48.194;11.632;2023-02-22T03:56:27;4.07;;;2.72;;
61531;SDS011;47397;48.194;11.632;2023-02-22T03:57:31;3.55;;;2.90;;
61531;SDS011;47397;48.194;11.632;2023-02-22T03:58:34;4.80;;;3.05;;
61531;SDS011;47397;48.194;11.632;2023-02-22T03:59:36;5.00;;;3.33;;
61531;SDS011;47397;48.194;11.632;2023-02-22T04:00:37;3.58;;;2.90;;
61531;SDS011;47397;48.194;11.632;2023-02-22T04:01:38;4.15;;;3.45;;
61531;SDS011;47397;48.194;11.632;2023-02-22T04:02:39;5.05;;;3.00;;
61531;SDS011;47397;48.194;11.632;2023-02-22T04:03:39;5.38;;;3.22;;
61531;SDS011;47397;48.194;11.632;2023-02-22T04:04:40;6.07;;;3.63;;
61531;SDS011;47397;48.194;11.632;2023-02-22T04:05:42;3.65;;;2.95;;
61531;SDS011;47397;48.194;11.632;2023-02-22T04:06:45;5.10;;;3.10;;
61531;SDS011;47397;48.194;11.632;2023-02-22T04:07:45;4.18;;;3.03;;
61531;SDS011;47397;48.194;11.632;2023-02-22T04:08:46;5.80;;;3.15;;
61531;SDS011;47397;48.194;11.632;2023-02-22T04:09:46;4.20;;;2.97;;
61531;SDS011;47397;48.194;11.632;2023-02-22T04:10:47;7.05;;;3.17;;
61531;SDS011;47397;48.194;11.632;2023-02-22T04:11:47;4.38;;;2.92;;
61531;SDS011;47397;48.194;11.632;2023-02-22T04:12:48;3.92;;;2.92;;
61531;SDS011;47397;48.194;11.632;2023-02-22T04:13:49;4.88;;;3.05;;
61531;SDS011;47397;48.194;11.632;2023-02-22T04:14:49;4.97;;;3.00;;
61531;SDS011;47397;48.194;11.632;2023-02-22T04:15:49;5.22;;;3.10;;
61531;SDS011;47397;48.194;11.632;2023-02-22T04:16:50;3.90;;;2.65;;
61531;SDS011;47397;48.194;11.632;2023-02-22T04:17:50;4.05;;;2.83;;
61531;SDS011;47397;48.194;11.632;2023-02-22T04:18:51;3.90;;;2.90;;
61531;SDS011;47397;48.194;11.632;2023-02-22T04:19:51;4.50;;;2.60;;
61531;SDS011;47397;48.194;11.632;2023-02-22T04:20:53;4.18;;;2.65;;
61531;SDS011;47397;48.194;11.632;2023-02-22T04:21:53;4.03;;;2.50;;
61531;SDS011;47397;48.194;11.632;2023-02-22T04:22:54;4.13;;;2.80;;
61531;SDS011;47397;48.194;11.632;2023-02-22T04:23:54;3.72;;;2.92;;
61531;SDS011;47397;48.194;11.632;2023-02-22T04:24:55;4.85;;;3.05;;
61531;SDS011;47397;48.194;11.632;2023-02-22T04:25:55;4.35;;;2.90;;
61531;SDS011;47397;48.194;11.632;2023-02-22T04:26:56;4.70;;;3.20;;
61531;SDS011;47397;48.194;11.632;2023-02-22T04:27:56;5.30;;;3.10;;
61531;SDS011;47397;48.194;11.632;2023-02-22T04:28:56;4.30;;;2.88;;
61531;SDS011;47397;48.194;11.632;2023-02-22T04:29:57;4.35;;;3.28;;
61531;SDS011;47397;48.194;11.632;2023-02-22T04:30:57;4.45;;;2.80;;
61531;SDS011;47397;48.194;11.632;2023-02-22T04:31:58;4.07;;;2.67;;
61531;SDS011;47397;48.194;11.632;2023-02-22T04:32:58;3.75;;;2.65;;
61531;SDS011;47397;48.194;11.632;2023-02-22T04:33:58;4.18;;;2.97;;
61531;SDS011;47397;48.194;11.632;2023-02-22T04:34:59;3.47;;;2.75;;
61531;SDS011;47397;48.194;11.632;2023-02-22T04:36:01;3.80;;;2.97;;
61531;SDS011;47397;48.194;11.632;2023-02-22T04:37:01;4.45;;;2.80;;
61531;SDS011;47397;48.194;11.632;2023-02-22T04:38:01;3.92;;;2.72;;
61531;SDS011;47397;48.194;11.632;2023-02-22T04:39:02;4.05;;;2.95;;
61531;SDS011;47397;48.194;11.632;2023-02-22T04:40:03;4.00;;;3.13;;
61531;SDS011;47397;48.194;11.632;2023-02-22T04:41:04;5.18;;;3.35;;
61531;SDS011;47397;48.194;11.632;2023-02-22T04:42:05;3.85;;;2.83;;
61531;SDS011;47397;48.194;11.632;2023-02-22T04:43:05;4.25;;;2.80;;
61531;SDS011;47397;48.194;11.632;2023-02-22T04:44:05;4.15;;;3.13;;
61531;SDS011;47397;48.194;11.632;2023-02-22T04:45:07;4.43;;;2.75;;
61531;SDS011;47397;48.194;11.632;2023-02-22T04:46:08;6.15;;;3.00;;
61531;SDS011;47397;48.194;11.632;2023-02-22T04:47:08;4.45;;;2.55;;
61531;SDS011;47397;48.194;11.632;2023-02-22T04:48:09;3.58;;;2.60;;
61531;SDS011;47397;48.194;11.632;2023-02-22T04:49:09;3.78;;;2.72;;
61531;SDS011;47397;48.194;11.632;2023-02-22T04:50:10;4.13;;;2.63;;
61531;SDS011;47397;48.194;11.632;2023-02-22T04:51:12;3.65;;;2.88;;
61531;SDS011;47397;48.194;11.632;2023-02-22T04:52:13;4.20;;;3.00;;
61531;SDS011;47397;48.194;11.632;2023-02-22T04:53:14;4.00;;;2.63;;
61531;SDS011;47397;48.194;11.632;2023-02-22T04:54:14;4.57;;;2.63;;
61531;SDS011;47397;48.194;11.632;2023-02-22T04:55:15;4.78;;;2.92;;
61531;SDS011;47397;48.194;11.632;2023-02-22T04:56:16;4.97;;;3.05;;
61531;SDS011;47397;48.194;11.632;2023-02-22T04:57:16;4.00;;;2.63;;
61531;SDS011;47397;48.194;11.632;2023-02-22T04:58:17;5.38;;;3.00;;
61531;SDS011;47397;48.194;11.632;2023-02-22T04:59:17;6.88;;;3.50;;
61531;SDS011;47397;48.194;11.632;2023-02-22T05:00:18;3.80;;;2.65;;
61531;SDS011;47397;48.194;11.632;2023-02-22T05:01:20;4.13;;;2.75;;
61531;SDS011;47397;48.194;11.632;2023-02-22T05:02:20;3.67;;;2.80;;
61531;SDS011;47397;48.194;11.632;2023-02-22T05:03:21;3.92;;;2.65;;
61531;SDS011;47397;48.194;11.632;2023-02-22T05:04:21;3.85;;;2.92;;
61531;SDS011;47397;48.194;11.632;2023-02-22T05:05:22;3.63;;;2.70;;
61531;SDS011;47397;48.194;11.632;2023-02-22T05:06:23;5.45;;;3.40;;
61531;SDS011;47397;48.194;11.632;2023-02-22T05:07:24;3.70;;;2.97;;
61531;SDS011;47397;48.194;11.632;2023-02-22T05:08:24;3.45;;;2.67;;
61531;SDS011;47397;48.194;11.632;2023-02-22T05:09:25;4.28;;;2.60;;
61531;SDS011;47397;48.194;11.632;2023-02-22T05:10:25;4.65;;;2.78;;
61531;SDS011;47397;48.194;11.632;2023-02-22T05:11:26;5.22;;;2.78;;
61531;SDS011;47397;48.194;11.632;2023-02-22T05:12:26;5.70;;;3.28;;
61531;SDS011;47397;48.194;11.632;2023-02-22T05:13:27;3.83;;;2.40;;
61531;SDS011;47397;48.194;11.632;2023-02-22T05:14:27;3.65;;;2.75;;
61531;SDS011;47397;48.194;11.632;2023-02-22T05:15:27;4.28;;;3.03;;
61531;SDS011;47397;48.194;11.632;2023-02-22T05:16:28;4.30;;;2.83;;
61531;SDS011;47397;48.194;11.632;2023-02-22T05:17:28;4.90;;;2.90;;
61531;SDS011;47397;48.194;11.632;2023-02-22T05:18:29;3.80;;;2.80;;
61531;SDS011;47397;48.194;11.632;2023-02-22T05:19:29;4.35;;;2.75;;
61531;SDS011;47397;48.194;11.632;2023-02-22T05:20:30;4.35;;;2.90;;
61531;SDS011;47397;48.194;11.632;2023-02-22T05:21:34;4.07;;;2.80;;
61531;SDS011;47397;48.194;11.632;2023-02-22T05:22:35;4.32;;;2.58;;
61531;SDS011;47397;48.194;11.632;2023-02-22T05:23:35;3.53;;;2.55;;
61531;SDS011;47397;48.194;11.632;2023-02-22T05:24:35;3.90;;;2.65;;
61531;SDS011;47397;48.194;11.632;2023-02-22T05:25:36;5.15;;;2.80;;
61531;SDS011;47397;48.194;11.632;2023-02-22T05:26:36;4.13;;;2.63;;
61531;SDS011;47397;48.194;11.632;2023-02-22T05:27:37;3.90;;;2.85;;
61531;SDS011;47397;48.194;11.632;2023-02-22T05:28:37;4.20;;;2.67;;
61531;SDS011;47397;48.194;11.632;2023-02-22T05:29:38;4.40;;;2.75;;
61531;SDS011;47397;48.194;11.632;2023-02-22T05:30:38;3.47;;;2.45;;
61531;SDS011;47397;48.194;11.632;2023-02-22T05:31:39;3.80;;;2.58;;
61531;SDS011;47397;48.194;11.632;2023-02-22T05:32:39;4.40;;;2.60;;
61531;SDS011;47397;48.194;11.632;2023-02-22T05:33:40;5.63;;;2.85;;
61531;SDS011;47397;48.194;11.632;2023-02-22T05:34:40;4.80;;;2.90;;
61531;SDS011;47397;48.194;11.632;2023-02-22T05:35:41;3.60;;;2.72;;
61531;SDS011;47397;48.194;11.632;2023-02-22T05:36:43;3.50;;;2.80;;
61531;SDS011;47397;48.194;11.632;2023-02-22T05:37:44;3.65;;;2.95;;
61531;SDS011;47397;48.194;11.632;2023-02-22T05:38:44;4.25;;;2.80;;
61531;SDS011;47397;48.194;11.632;2023-02-22T05:39:45;4.25;;;2.80;;
61531;SDS011;47397;48.194;11.632;2023-02-22T05:40:45;4.03;;;2.47;;
61531;SDS011;47397;48.194;11.632;2023-02-22T05:41:45;3.65;;;2.80;;
61531;SDS011;47397;48.194;11.632;2023-02-22T05:42:46;4.60;;;2.70;;
61531;SDS011;47397;48.194;11.632;2023-02-22T05:43:47;3.40;;;2.65;;
61531;SDS011;47397;48.194;11.632;2023-02-22T05:44:47;3.30;;;2.50;;
61531;SDS011;47397;48.194;11.632;2023-02-22T05:45:48;3.55;;;2.45;;
61531;SDS011;47397;48.194;11.632;2023-02-22T05:46:48;4.05;;;2.50;;
61531;SDS011;47397;48.194;11.632;2023-02-22T05:47:49;3.95;;;2.60;;
61531;SDS011;47397;48.194;11.632;2023-02-22T05:48:50;3.78;;;2.33;;
61531;SDS011;47397;48.194;11.632;2023-02-22T05:49:50;3.90;;;2.83;;
61531;SDS011;47397;48.194;11.632;2023-02-22T05:50:51;4.03;;;2.92;;
61531;SDS011;47397;48.194;11.632;2023-02-22T05:51:52;3.83;;;2.40;;
61531;SDS011;47397;48.194;11.632;2023-02-22T05:52:53;4.47;;;2.70;;
61531;SDS011;47397;48.194;11.632;2023-02-22T05:53:54;4.07;;;2.75;;
61531;SDS011;47397;48.194;11.632;2023-02-22T05:54:54;3.75;;;2.60;;
61531;SDS011;47397;48.194;11.632;2023-02-22T05:55:54;4.75;;;2.80;;
61531;SDS011;47397;48.194;11.632;2023-02-22T05:56:55;5.57;;;2.92;;
61531;SDS011;47397;48.194;11.632;2023-02-22T05:57:55;3.78;;;2.88;;
61531;SDS011;47397;48.194;11.632;2023-02-22T05:58:56;3.83;;;2.70;;
61531;SDS011;47397;48.194;11.632;2023-02-22T05:59:56;3.47;;;2.65;;
61531;SDS011;47397;48.194;11.632;2023-02-22T06:00:57;5.55;;;3.20;;
61531;SDS011;47397;48.194;11.632;2023-02-22T06:01:57;3.80;;;3.15;;
61531;SDS011;47397;48.194;11.632;2023-02-22T06:02:58;3.42;;;2.60;;
61531;SDS011;47397;48.194;11.632;2023-02-22T06:03:59;4.72;;;2.85;;
61531;SDS011;47397;48.194;11.632;2023-02-22T06:05:00;4.03;;;2.70;;
61531;SDS011;47397;48.194;11.632;2023-02-22T06:06:00;3.30;;;2.40;;
61531;SDS011;47397;48.194;11.632;2023-02-22T06:07:02;4.38;;;3.03;;
61531;SDS011;47397;48.194;11.632;2023-02-22T06:08:03;4.03;;;2.75;;
61531;SDS011;47397;48.194;11.632;2023-02-22T06:09:04;4.97;;;2.80;;
61531;SDS011;47397;48.194;11.632;2023-02-22T06:10:05;3.75;;;3.03;;
61531;SDS011;47397;48.194;11.632;2023-02-22T06:11:06;3.13;;;2.40;;
61531;SDS011;47397;48.194;11.632;2023-02-22T06:12:06;3.60;;;2.47;;
61531;SDS011;47397;48.194;11.632;2023-02-22T06:13:07;4.28;;;2.53;;
61531;SDS011;47397;48.194;11.632;2023-02-22T06:14:08;3.97;;;3.58;;
61531;SDS011;47397;48.194;11.632;2023-02-22T06:15:08;4.45;;;2.60;;
61531;SDS011;47397;48.194;11.632;2023-02-22T06:16:09;4.25;;;3.13;;
61531;SDS011;47397;48.194;11.632;2023-02-22T06:17:09;3.33;;;2.72;;